Time;durP1;ratioP1;P1;durP2;ratioP2;P2;SDS_P1;SDS_P2;PMS_P1;PMS_P2;Temp;Humidity;BMP_temperature;BMP_pressure;BME280_temperature;BME280_humidity;BME280_pressure;Samples;Min_cycle;Max_cycle;Signal;HPM_P1;HPM_P2
2022/11/19 00:01:51;;;;;;;12.35;7.18;;;;;;;;;;5053388;28;20045;-64
2022/11/19 00:04:18;;;;;;;10.95;7.90;;;;;;;;;;5053089;28;20037;-64
2022/11/19 00:06:44;;;;;;;10.75;6.93;;;;;;;;;;5053459;28;20037;-64
2022/11/19 00:09:13;;;;;;;11.00;7.45;;;;;;;;;;5053376;28;20120;-64
2022/11/19 00:14:24;;;;;;;9.90;6.90;;;;;;;;;;5052963;28;20041;-64
2022/11/19 00:16:50;;;;;;;10.18;6.50;;;;;;;;;;5052891;28;20049;-64
2022/11/19 00:19:16;;;;;;;9.57;7.05;;;;;;;;;;5052741;28;20465;-64
2022/11/19 00:21:42;;;;;;;11.00;7.45;;;;;;;;;;5053130;28;20070;-64
2022/11/19 00:24:09;;;;;;;11.85;7.40;;;;;;;;;;5053218;28;20439;-64
2022/11/19 00:26:35;;;;;;;9.35;6.80;;;;;;;;;;5052389;28;20045;-64
2022/11/19 00:29:01;;;;;;;9.70;6.70;;;;;;;;;;5053019;28;20040;-64
2022/11/19 00:31:27;;;;;;;11.57;6.80;;;;;;;;;;5052489;28;20482;-64
2022/11/19 00:33:54;;;;;;;9.23;6.30;;;;;;;;;;5052682;28;20608;-64
2022/11/19 00:36:21;;;;;;;9.38;6.40;;;;;;;;;;5053047;28;20041;-64
2022/11/19 00:38:47;;;;;;;9.35;5.78;;;;;;;;;;5052371;28;20045;-64
2022/11/19 00:41:13;;;;;;;9.35;5.90;;;;;;;;;;5052153;28;20045;-64
2022/11/19 00:43:45;;;;;;;8.45;5.65;;;;;;;;;;5052885;28;20091;-64
2022/11/19 00:46:12;;;;;;;10.50;5.63;;;;;;;;;;5052371;28;20045;-64
2022/11/19 00:48:38;;;;;;;9.13;5.78;;;;;;;;;;5052349;28;20376;-64
2022/11/19 00:51:04;;;;;;;7.85;5.13;;;;;;;;;;5052463;28;20036;-64
2022/11/19 00:53:30;;;;;;;11.15;5.50;;;;;;;;;;5052599;28;20456;-64
2022/11/19 00:55:59;;;;;;;8.10;5.20;;;;;;;;;;5052127;28;20043;-64
2022/11/19 00:58:25;;;;;;;7.72;5.00;;;;;;;;;;5052381;28;20499;-64
2022/11/19 01:00:51;;;;;;;7.95;4.95;;;;;;;;;;5051942;28;20048;-64
2022/11/19 01:03:17;;;;;;;8.88;5.38;;;;;;;;;;5051959;28;20644;-64
2022/11/19 01:05:43;;;;;;;5.65;4.30;;;;;;;;;;5052303;28;20456;-64
2022/11/19 01:08:09;;;;;;;5.80;4.22;;;;;;;;;;5051705;28;20072;-64
2022/11/19 01:10:36;;;;;;;5.80;4.40;;;;;;;;;;5051542;28;20049;-64
2022/11/19 01:15:48;;;;;;;4.78;3.70;;;;;;;;;;5051901;28;20092;-64
2022/11/19 01:18:14;;;;;;;7.18;4.40;;;;;;;;;;5051303;28;20049;-64
2022/11/19 01:20:40;;;;;;;5.45;3.88;;;;;;;;;;5052009;28;20124;-64
2022/11/19 01:23:06;;;;;;;6.20;4.03;;;;;;;;;;5051750;28;20053;-64
2022/11/19 01:25:32;;;;;;;5.60;4.18;;;;;;;;;;5051331;28;20120;-64
2022/11/19 01:27:59;;;;;;;6.40;3.40;;;;;;;;;;5052033;28;20037;-64
2022/11/19 01:30:25;;;;;;;5.68;4.00;;;;;;;;;;5051711;28;20060;-64
2022/11/19 01:32:51;;;;;;;6.18;4.00;;;;;;;;;;5051230;28;20451;-64
2022/11/19 01:35:17;;;;;;;7.30;4.22;;;;;;;;;;5052020;28;20037;-64
2022/11/19 01:37:43;;;;;;;7.00;4.13;;;;;;;;;;5051459;28;20048;-64
2022/11/19 01:40:09;;;;;;;5.70;4.47;;;;;;;;;;5050925;28;20037;-64
2022/11/19 01:42:54;;;;;;;6.68;4.15;;;;;;;;;;5051642;28;20377;-64
2022/11/19 01:45:31;;;;;;;6.97;4.75;;;;;;;;;;5051748;28;20098;-64
2022/11/19 01:48:16;;;;;;;6.50;3.83;;;;;;;;;;5051274;28;20041;-64
2022/11/19 01:50:46;;;;;;;6.70;4.32;;;;;;;;;;5051443;28;20483;-64
2022/11/19 01:53:13;;;;;;;5.90;3.92;;;;;;;;;;5051617;28;20045;-64
2022/11/19 01:55:40;;;;;;;6.13;4.20;;;;;;;;;;5050945;28;20044;-64
2022/11/19 01:58:06;;;;;;;6.20;3.95;;;;;;;;;;5049913;28;20369;-64
2022/11/19 02:00:32;;;;;;;5.40;3.80;;;;;;;;;;5051486;28;20094;-64
2022/11/19 02:02:59;;;;;;;5.60;3.80;;;;;;;;;;5050656;28;20072;-64
2022/11/19 02:05:26;;;;;;;6.35;3.95;;;;;;;;;;5051435;28;20143;-64
2022/11/19 02:07:53;;;;;;;5.68;4.00;;;;;;;;;;5051472;28;20391;-64
2022/11/19 02:10:23;;;;;;;7.15;4.35;;;;;;;;;;5050699;28;20041;-64
2022/11/19 02:12:59;;;;;;;7.32;4.15;;;;;;;;;;5051430;28;20453;-64
2022/11/19 02:15:36;;;;;;;7.20;4.03;;;;;;;;;;5050919;28;20136;-64
2022/11/19 02:18:08;;;;;;;5.60;4.10;;;;;;;;;;5050066;28;20049;-64
2022/11/19 02:20:43;;;;;;;6.10;4.30;;;;;;;;;;5052243;28;20075;-64
2022/11/19 02:23:12;;;;;;;5.18;3.83;;;;;;;;;;5053828;28;20037;-64
2022/11/19 02:25:38;;;;;;;6.50;4.22;;;;;;;;;;5053820;28;20033;-64
2022/11/19 02:28:04;;;;;;;6.47;3.90;;;;;;;;;;5053986;28;20041;-64
2022/11/19 02:30:35;;;;;;;8.38;4.20;;;;;;;;;;5053581;28;20090;-64
2022/11/19 02:33:14;;;;;;;7.60;4.75;;;;;;;;;;5053558;28;20037;-64
2022/11/19 02:35:46;;;;;;;5.45;4.00;;;;;;;;;;5053983;28;20040;-64
2022/11/19 02:38:21;;;;;;;6.50;4.18;;;;;;;;;;5053870;28;20045;-64
2022/11/19 02:41:32;;;;;;;6.55;4.30;;;;;;;;;;5053495;28;20052;-64
2022/11/19 02:44:57;;;;;;;5.97;4.03;;;;;;;;;;5053419;28;20095;-64
2022/11/19 02:46:38;;;;;;;4.68;3.95;;;;;;;;;;5052887;28;20132;-64
2022/11/19 02:49:04;;;;;;;6.97;4.65;;;;;;;;;;5053693;28;20545;-64
2022/11/19 02:51:30;;;;;;;7.30;4.68;;;;;;;;;;5053231;28;20039;-64
2022/11/19 02:53:57;;;;;;;6.70;4.22;;;;;;;;;;5053101;28;20123;-64
2022/11/19 02:56:41;;;;;;;6.00;4.10;;;;;;;;;;5053476;28;20044;-64
2022/11/19 03:04:37;;;;;;;6.40;4.18;;;;;;;;;;5053389;28;20041;-64
2022/11/19 03:07:11;;;;;;;6.95;3.95;;;;;;;;;;5053414;28;20099;-64
2022/11/19 03:09:42;;;;;;;5.82;4.20;;;;;;;;;;5033006;28;20488;-64
2022/11/19 03:12:18;;;;;;;5.93;3.60;;;;;;;;;;5033417;28;20484;-64
2022/11/19 03:17:28;;;;;;;4.93;3.80;;;;;;;;;;5108491;27;20388;-64
2022/11/19 03:20:04;;;;;;;8.13;4.20;;;;;;;;;;5109466;28;20050;-64
2022/11/19 03:22:35;;;;;;;6.28;4.05;;;;;;;;;;5109479;28;20046;-64
2022/11/19 03:25:05;;;;;;;6.60;4.25;;;;;;;;;;5109054;28;20541;-64
2022/11/19 03:27:43;;;;;;;10.32;4.28;;;;;;;;;;5109483;28;20032;-64
2022/11/19 03:30:09;;;;;;;6.00;3.97;;;;;;;;;;5108882;28;20046;-64
2022/11/19 03:32:37;;;;;;;5.57;3.70;;;;;;;;;;5108760;28;20123;-64
2022/11/19 03:35:06;;;;;;;6.82;4.00;;;;;;;;;;5109303;28;20047;-64
2022/11/19 03:37:34;;;;;;;5.65;3.88;;;;;;;;;;5108824;28;20066;-64
2022/11/19 03:40:02;;;;;;;5.70;3.35;;;;;;;;;;5108700;28;20044;-64
2022/11/19 03:42:29;;;;;;;6.80;3.78;;;;;;;;;;5109126;28;20397;-64
2022/11/19 03:44:59;;;;;;;6.60;4.30;;;;;;;;;;5108528;28;20120;-64
2022/11/19 03:47:27;;;;;;;4.95;3.40;;;;;;;;;;5108679;28;20374;-64
2022/11/19 03:49:57;;;;;;;7.28;3.55;;;;;;;;;;5108942;28;20098;-64
2022/11/19 03:52:23;;;;;;;5.63;3.75;;;;;;;;;;5108711;28;20437;-64
2022/11/19 03:54:49;;;;;;;5.57;3.78;;;;;;;;;;5108554;28;20071;-64
2022/11/19 03:57:17;;;;;;;6.05;4.10;;;;;;;;;;5108681;28;20036;-64
2022/11/19 03:59:43;;;;;;;6.78;3.78;;;;;;;;;;5108387;28;20043;-64
2022/11/19 04:02:10;;;;;;;5.82;3.97;;;;;;;;;;5107114;28;20048;-64
2022/11/19 04:04:37;;;;;;;6.05;3.90;;;;;;;;;;5108628;28;20505;-64
2022/11/19 04:07:13;;;;;;;4.60;3.22;;;;;;;;;;5108316;28;20048;-64
2022/11/19 04:09:40;;;;;;;4.95;3.47;;;;;;;;;;5087579;28;20127;-64
2022/11/19 04:12:07;;;;;;;5.75;4.03;;;;;;;;;;5088107;28;20041;-64
2022/11/19 04:14:33;;;;;;;6.20;3.85;;;;;;;;;;5088024;28;20040;-64
2022/11/19 04:16:59;;;;;;;6.95;4.20;;;;;;;;;;5087119;28;20103;-64
2022/11/19 04:19:26;;;;;;;4.90;3.50;;;;;;;;;;5088038;28;20051;-64
2022/11/19 04:21:52;;;;;;;5.63;3.83;;;;;;;;;;5087845;28;20040;-64
2022/11/19 04:24:18;;;;;;;7.10;4.18;;;;;;;;;;5087401;28;20036;-64
2022/11/19 04:26:44;;;;;;;5.53;3.95;;;;;;;;;;5086389;28;20048;-64
2022/11/19 04:29:10;;;;;;;7.38;4.13;;;;;;;;;;5073988;28;20122;-64
2022/11/19 04:31:36;;;;;;;5.15;3.72;;;;;;;;;;5078848;28;20060;-64
2022/11/19 04:34:02;;;;;;;7.60;4.55;;;;;;;;;;5094568;28;20044;-64
2022/11/19 04:36:28;;;;;;;5.35;3.90;;;;;;;;;;5094474;28;20072;-64
2022/11/19 04:38:54;;;;;;;6.47;4.10;;;;;;;;;;5086654;28;20039;-64
2022/11/19 04:41:20;;;;;;;6.57;4.00;;;;;;;;;;5073837;28;20046;-64
2022/11/19 04:43:46;;;;;;;5.57;3.78;;;;;;;;;;5074191;28;20094;-64
2022/11/19 04:46:12;;;;;;;7.30;4.32;;;;;;;;;;5073766;28;20451;-64
2022/11/19 04:48:38;;;;;;;7.53;4.40;;;;;;;;;;5073801;28;20044;-64
2022/11/19 04:51:04;;;;;;;5.18;3.95;;;;;;;;;;5073634;28;20041;-64
2022/11/19 04:53:30;;;;;;;5.80;4.07;;;;;;;;;;5073497;28;20044;-64
2022/11/19 04:55:56;;;;;;;8.13;4.20;;;;;;;;;;5073879;28;20032;-64
2022/11/19 04:58:22;;;;;;;7.72;4.93;;;;;;;;;;5073715;28;20124;-64
2022/11/19 05:00:49;;;;;;;5.82;4.00;;;;;;;;;;5072193;28;20045;-64
2022/11/19 05:03:15;;;;;;;5.38;3.95;;;;;;;;;;5073859;28;20098;-64
2022/11/19 05:05:41;;;;;;;5.68;4.05;;;;;;;;;;5073566;28;20106;-64
2022/11/19 05:08:07;;;;;;;8.13;3.97;;;;;;;;;;5080937;28;20043;-64
2022/11/19 05:10:33;;;;;;;5.10;3.75;;;;;;;;;;5093729;28;20040;-64
2022/11/19 05:12:59;;;;;;;6.40;4.00;;;;;;;;;;5093722;28;20474;-64
2022/11/19 05:15:25;;;;;;;6.90;4.05;;;;;;;;;;5092934;28;20051;-64
2022/11/19 05:17:51;;;;;;;5.65;3.85;;;;;;;;;;5093657;28;20043;-64
2022/11/19 05:20:17;;;;;;;6.57;4.13;;;;;;;;;;5093589;28;20122;-64
2022/11/19 05:22:43;;;;;;;6.85;4.40;;;;;;;;;;5091910;28;20047;-64
2022/11/19 05:25:09;;;;;;;6.53;3.90;;;;;;;;;;5093654;28;20036;-64
2022/11/19 05:27:35;;;;;;;6.47;4.50;;;;;;;;;;5093125;28;20501;-64
2022/11/19 05:30:01;;;;;;;6.50;4.40;;;;;;;;;;5092786;28;20048;-64
2022/11/19 05:32:27;;;;;;;5.82;4.00;;;;;;;;;;5093672;28;20401;-64
2022/11/19 05:34:53;;;;;;;6.57;4.07;;;;;;;;;;5093527;28;20046;-64
2022/11/19 05:37:19;;;;;;;8.73;4.70;;;;;;;;;;5091418;28;20075;-64
2022/11/19 05:39:45;;;;;;;6.15;4.18;;;;;;;;;;5077764;28;20028;-64
2022/11/19 05:42:11;;;;;;;6.00;4.32;;;;;;;;;;5072963;28;20090;-64
2022/11/19 05:44:37;;;;;;;6.60;4.90;;;;;;;;;;5070990;28;20045;-64
2022/11/19 05:47:03;;;;;;;6.57;4.90;;;;;;;;;;5072957;28;20502;-64
2022/11/19 05:49:29;;;;;;;7.30;4.72;;;;;;;;;;5072929;28;20094;-64
2022/11/19 05:51:55;;;;;;;7.65;5.32;;;;;;;;;;5072341;28;20048;-64
2022/11/19 05:54:22;;;;;;;8.30;5.05;;;;;;;;;;5072574;28;20124;-64
2022/11/19 05:56:48;;;;;;;7.40;4.93;;;;;;;;;;5072535;28;20040;-64
2022/11/19 05:59:14;;;;;;;7.78;4.53;;;;;;;;;;5071796;28;20493;-64
2022/11/19 06:01:40;;;;;;;7.82;5.68;;;;;;;;;;5072526;28;20050;-64
2022/11/19 06:04:06;;;;;;;10.05;5.20;;;;;;;;;;5072563;28;20620;-64
2022/11/19 06:06:32;;;;;;;8.75;5.22;;;;;;;;;;5071996;28;20051;-64
2022/11/19 06:08:58;;;;;;;7.35;4.88;;;;;;;;;;5087058;28;20441;-64
2022/11/19 06:14:09;;;;;;;9.00;5.15;;;;;;;;;;5092300;28;20036;-64
2022/11/19 06:16:35;;;;;;;7.38;5.10;;;;;;;;;;5092207;28;20517;-64
2022/11/19 06:19:01;;;;;;;11.60;6.10;;;;;;;;;;5092495;28;20115;-64
2022/11/19 06:21:27;;;;;;;7.30;5.00;;;;;;;;;;5091606;28;20557;-64
2022/11/19 06:23:53;;;;;;;9.85;6.10;;;;;;;;;;5092396;28;20093;-64
2022/11/19 06:26:26;;;;;;;8.15;5.60;;;;;;;;;;5092397;28;20472;-64
2022/11/19 06:28:53;;;;;;;7.50;5.47;;;;;;;;;;5092067;28;20131;-64
2022/11/19 06:31:19;;;;;;;11.13;6.50;;;;;;;;;;5092277;28;20539;-64
2022/11/19 06:33:45;;;;;;;9.48;5.97;;;;;;;;;;5092352;28;20411;-64
2022/11/19 06:36:11;;;;;;;10.15;6.43;;;;;;;;;;5091854;28;20055;-64
2022/11/19 06:38:37;;;;;;;8.60;6.03;;;;;;;;;;5087206;28;20033;-64
2022/11/19 06:41:03;;;;;;;10.63;6.82;;;;;;;;;;5071942;28;20048;-64
2022/11/19 06:43:29;;;;;;;10.07;6.82;;;;;;;;;;5071093;28;20056;-64
2022/11/19 06:45:55;;;;;;;8.23;6.20;;;;;;;;;;5071545;28;20123;-64
2022/11/19 06:48:22;;;;;;;9.40;6.35;;;;;;;;;;5071801;28;20040;-64
2022/11/19 06:50:48;;;;;;;9.73;6.38;;;;;;;;;;5071233;28;20123;-64
2022/11/19 06:53:14;;;;;;;12.82;6.97;;;;;;;;;;5071700;28;20040;-64
2022/11/19 06:55:40;;;;;;;11.60;7.00;;;;;;;;;;5069879;28;20402;-64
2022/11/19 06:58:06;;;;;;;10.77;7.38;;;;;;;;;;5070861;28;20044;-64
2022/11/19 07:00:33;;;;;;;8.57;6.07;;;;;;;;;;5071441;28;20422;-64
2022/11/19 07:02:59;;;;;;;9.75;6.45;;;;;;;;;;5071690;28;20101;-64
2022/11/19 07:05:25;;;;;;;10.15;6.70;;;;;;;;;;5071311;28;20038;-64
2022/11/19 07:07:52;;;;;;;9.10;7.13;;;;;;;;;;5076814;28;20100;-64
2022/11/19 07:10:18;;;;;;;12.43;6.50;;;;;;;;;;5091403;28;20047;-64
2022/11/19 07:12:44;;;;;;;11.50;6.90;;;;;;;;;;5091368;28;20043;-64
2022/11/19 07:15:10;;;;;;;10.32;6.57;;;;;;;;;;5091145;28;20063;-64
2022/11/19 07:17:36;;;;;;;9.82;6.95;;;;;;;;;;5091713;28;20072;-64
2022/11/19 07:20:03;;;;;;;10.30;7.30;;;;;;;;;;5090861;28;20040;-64
2022/11/19 07:22:29;;;;;;;10.13;6.35;;;;;;;;;;5091958;28;20494;-64
2022/11/19 07:24:55;;;;;;;11.93;7.30;;;;;;;;;;5091541;28;20119;-64
2022/11/19 07:27:21;;;;;;;12.63;7.45;;;;;;;;;;5091464;28;20059;-64
2022/11/19 07:29:47;;;;;;;10.48;6.90;;;;;;;;;;5091338;28;20044;-64
2022/11/19 07:32:13;;;;;;;12.07;8.05;;;;;;;;;;5091194;28;20051;-64
2022/11/19 07:34:39;;;;;;;11.45;7.50;;;;;;;;;;5091295;28;20048;-64
2022/11/19 07:37:06;;;;;;;12.30;7.78;;;;;;;;;;5090998;28;20043;-64
2022/11/19 07:39:32;;;;;;;11.20;7.60;;;;;;;;;;5078650;28;20637;-64
2022/11/19 07:44:43;;;;;;;13.98;7.95;;;;;;;;;;5070958;28;20127;-64
2022/11/19 07:47:09;;;;;;;12.88;7.50;;;;;;;;;;5071020;28;20044;-64
2022/11/19 07:49:35;;;;;;;10.98;7.90;;;;;;;;;;5071159;28;20087;-64
2022/11/19 07:52:01;;;;;;;11.38;7.80;;;;;;;;;;5070908;28;20043;-64
2022/11/19 07:54:27;;;;;;;12.23;8.02;;;;;;;;;;5071053;28;20399;-64
2022/11/19 07:56:53;;;;;;;11.95;7.88;;;;;;;;;;5070752;28;20048;-64
2022/11/19 07:59:19;;;;;;;12.38;7.35;;;;;;;;;;5070753;28;20126;-64
2022/11/19 08:01:45;;;;;;;16.70;10.25;;;;;;;;;;5071061;28;20037;-64
2022/11/19 08:04:11;;;;;;;17.33;10.40;;;;;;;;;;5074636;28;20043;-64
2022/11/19 08:06:37;;;;;;;17.00;10.23;;;;;;;;;;5074044;28;20119;-64
2022/11/19 08:09:04;;;;;;;11.95;7.57;;;;;;;;;;5090251;28;20114;-64
2022/11/19 08:11:30;;;;;;;11.40;7.65;;;;;;;;;;5094968;28;20101;-64
2022/11/19 08:13:58;;;;;;;11.27;7.85;;;;;;;;;;5094361;28;20123;-64
2022/11/19 08:19:12;;;;;;;10.75;8.00;;;;;;;;;;5094748;28;20079;-64
2022/11/19 08:21:42;;;;;;;13.05;8.35;;;;;;;;;;5094362;28;20072;-64
2022/11/19 08:24:09;;;;;;;12.02;7.82;;;;;;;;;;5094469;28;20078;-64
2022/11/19 08:26:35;;;;;;;11.23;7.43;;;;;;;;;;5094435;28;20043;-64
2022/11/19 08:29:01;;;;;;;12.57;7.78;;;;;;;;;;5094534;28;20036;-64
2022/11/19 08:31:27;;;;;;;12.48;7.65;;;;;;;;;;5094373;28;20036;-64
2022/11/19 08:33:54;;;;;;;10.90;7.75;;;;;;;;;;5094543;28;20046;-64
2022/11/19 08:36:20;;;;;;;13.57;7.63;;;;;;;;;;5094205;28;20044;-64
2022/11/19 08:38:46;;;;;;;12.57;7.95;;;;;;;;;;5088380;28;20485;-64
2022/11/19 08:42:58;;;;;;;12.63;8.43;;;;;;;;;;5074214;28;20123;-64
2022/11/19 08:44:01;;;;;;;11.40;7.45;;;;;;;;;;5073708;28;20047;-64
2022/11/19 08:46:27;;;;;;;10.57;7.53;;;;;;;;;;5074055;28;20044;-64
2022/11/19 08:48:53;;;;;;;12.45;7.88;;;;;;;;;;5074073;28;20036;-64
2022/11/19 08:51:19;;;;;;;13.80;7.22;;;;;;;;;;5074026;28;20048;-64
2022/11/19 08:53:46;;;;;;;11.57;7.18;;;;;;;;;;5073686;28;20471;-64
2022/11/19 08:56:12;;;;;;;12.48;7.50;;;;;;;;;;5071713;28;20123;-64
2022/11/19 08:58:38;;;;;;;10.70;7.38;;;;;;;;;;5073886;28;20120;-64
2022/11/19 09:01:08;;;;;;;13.60;8.00;;;;;;;;;;5073027;28;20037;-64
2022/11/19 09:03:34;;;;;;;11.88;7.55;;;;;;;;;;5073148;28;20463;-64
2022/11/19 09:06:00;;;;;;;10.32;7.13;;;;;;;;;;5073045;28;20045;-64
2022/11/19 09:08:26;;;;;;;11.65;7.60;;;;;;;;;;5083485;28;20050;-64
2022/11/19 09:10:52;;;;;;;11.15;7.20;;;;;;;;;;5093374;28;20040;-64
2022/11/19 09:13:18;;;;;;;11.38;7.13;;;;;;;;;;5092742;28;20115;-64
2022/11/19 09:15:47;;;;;;;10.15;7.70;;;;;;;;;;5092963;28;20052;-64
2022/11/19 09:18:13;;;;;;;12.32;7.75;;;;;;;;;;5093285;28;20100;-64
2022/11/19 09:20:39;;;;;;;10.23;7.53;;;;;;;;;;5093135;28;20036;-64
2022/11/19 09:23:06;;;;;;;10.95;7.57;;;;;;;;;;5093659;28;20399;-64
2022/11/19 09:25:32;;;;;;;12.02;7.05;;;;;;;;;;5093658;28;20032;-64
2022/11/19 09:27:58;;;;;;;10.80;6.78;;;;;;;;;;5093159;28;20074;-64
2022/11/19 09:30:25;;;;;;;11.55;7.13;;;;;;;;;;5092977;28;20032;-64
2022/11/19 09:32:51;;;;;;;9.90;7.03;;;;;;;;;;5093301;28;20111;-64
2022/11/19 09:35:17;;;;;;;11.10;7.47;;;;;;;;;;5092916;28;20064;-64
2022/11/19 09:37:43;;;;;;;10.98;7.18;;;;;;;;;;5092062;28;20074;-64
2022/11/19 09:40:16;;;;;;;12.82;7.07;;;;;;;;;;5075455;28;20071;-64
2022/11/19 09:42:42;;;;;;;;;;;;;;;;;;5072880;28;20064;-64
2022/11/19 09:45:26;;;;;;;9.88;6.85;;;;;;;;;;5072901;28;19923;-64
2022/11/19 09:48:06;;;;;;;10.60;7.07;;;;;;;;;;5072875;28;20098;-64
2022/11/19 09:50:44;;;;;;;11.57;7.57;;;;;;;;;;5072407;28;20044;-64
2022/11/19 09:53:15;;;;;;;9.60;6.72;;;;;;;;;;5072668;28;20053;-64
2022/11/19 09:55:44;;;;;;;11.10;7.13;;;;;;;;;;5072351;28;20478;-64
2022/11/19 09:58:15;;;;;;;15.77;7.97;;;;;;;;;;5072681;28;20079;-64
2022/11/19 10:00:43;;;;;;;11.63;7.20;;;;;;;;;;5072544;28;20041;-64
2022/11/19 10:03:14;;;;;;;9.75;6.80;;;;;;;;;;5072325;28;20040;-64
2022/11/19 10:05:49;;;;;;;12.50;7.07;;;;;;;;;;5072551;28;20386;-64
2022/11/19 10:08:28;;;;;;;10.82;7.78;;;;;;;;;;5081178;28;20040;-64
2022/11/19 10:10:54;;;;;;;12.15;7.60;;;;;;;;;;5092162;28;20096;-64
2022/11/19 10:13:32;;;;;;;11.63;7.47;;;;;;;;;;5092681;28;20048;-64
2022/11/19 10:16:01;;;;;;;12.25;7.90;;;;;;;;;;5092312;28;20044;-64
2022/11/19 10:18:45;;;;;;;14.48;7.90;;;;;;;;;;5092081;28;20545;-64
2022/11/19 10:21:30;;;;;;;9.95;6.85;;;;;;;;;;5092374;28;20044;-64
2022/11/19 10:24:02;;;;;;;12.10;7.85;;;;;;;;;;5092496;28;20086;-64
2022/11/19 10:26:40;;;;;;;12.27;6.88;;;;;;;;;;5091667;28;20421;-64
2022/11/19 10:29:16;;;;;;;11.45;6.50;;;;;;;;;;5092018;28;20073;-64
2022/11/19 10:31:46;;;;;;;11.00;7.25;;;;;;;;;;5092205;28;20047;-64
2022/11/19 10:34:27;;;;;;;11.07;7.20;;;;;;;;;;5091971;28;20044;-64
2022/11/19 10:36:58;;;;;;;11.63;7.30;;;;;;;;;;5092083;28;20093;-64
2022/11/19 10:39:31;;;;;;;10.07;6.95;;;;;;;;;;5080582;28;20402;-64
2022/11/19 10:42:19;;;;;;;11.02;7.05;;;;;;;;;;5071556;28;20044;-64
2022/11/19 10:45:00;;;;;;;11.27;7.10;;;;;;;;;;5071880;28;20083;-64
2022/11/19 10:47:26;;;;;;;10.23;6.93;;;;;;;;;;5071533;28;20040;-64
2022/11/19 10:49:53;;;;;;;9.27;6.72;;;;;;;;;;5071755;28;20367;-64
2022/11/19 10:52:22;;;;;;;9.73;6.80;;;;;;;;;;5071795;28;20037;-64
2022/11/19 10:54:49;;;;;;;9.32;5.93;;;;;;;;;;5071343;28;20040;-64
2022/11/19 10:57:16;;;;;;;10.85;6.97;;;;;;;;;;5071687;28;20037;-64
2022/11/19 10:59:43;;;;;;;9.18;5.80;;;;;;;;;;5071708;28;20048;-64
2022/11/19 11:02:22;;;;;;;10.13;6.30;;;;;;;;;;5071458;28;20089;-64
2022/11/19 11:05:05;;;;;;;8.48;5.93;;;;;;;;;;5071742;28;20041;-64
2022/11/19 11:07:44;;;;;;;8.43;5.75;;;;;;;;;;5074436;28;20482;-64
2022/11/19 11:10:32;;;;;;;8.70;6.78;;;;;;;;;;5091426;28;20083;-64
2022/11/19 11:15:49;;;;;;;7.35;4.82;;;;;;;;;;5091270;28;20084;-64
2022/11/19 11:18:16;;;;;;;7.78;5.53;;;;;;;;;;5091127;28;20040;-64
2022/11/19 11:20:47;;;;;;;7.50;5.65;;;;;;;;;;5091476;28;20459;-64
2022/11/19 11:23:15;;;;;;;8.07;5.90;;;;;;;;;;5091804;28;20039;-64
2022/11/19 11:25:50;;;;;;;8.60;5.93;;;;;;;;;;5091279;28;20123;-64
2022/11/19 11:28:17;;;;;;;8.95;5.90;;;;;;;;;;5091713;28;20078;-64
2022/11/19 11:30:57;;;;;;;11.07;5.90;;;;;;;;;;5091564;28;20076;-64
2022/11/19 11:33:28;;;;;;;6.10;5.40;;;;;;;;;;5091170;28;20441;-64
2022/11/19 11:35:55;;;;;;;10.25;5.82;;;;;;;;;;5091207;28;20123;-64
2022/11/19 11:38:26;;;;;;;7.15;5.00;;;;;;;;;;5091032;28;20077;-64
2022/11/19 11:41:03;;;;;;;11.43;5.63;;;;;;;;;;5075048;28;20048;-64
2022/11/19 11:43:30;;;;;;;8.18;5.65;;;;;;;;;;5074978;28;20037;-64
2022/11/19 11:46:00;;;;;;;7.88;6.07;;;;;;;;;;5075287;28;20406;-64
2022/11/19 11:48:28;;;;;;;10.15;5.75;;;;;;;;;;5074853;28;20044;-64
2022/11/19 11:50:55;;;;;;;7.28;5.28;;;;;;;;;;5074950;28;20049;-64
2022/11/19 11:53:31;;;;;;;7.05;4.95;;;;;;;;;;5075240;28;20064;-64
2022/11/19 11:55:59;;;;;;;7.53;5.70;;;;;;;;;;5074778;28;20040;-64
2022/11/19 11:58:32;;;;;;;7.00;4.80;;;;;;;;;;5074903;28;20038;-64
2022/11/19 12:01:14;;;;;;;7.00;4.82;;;;;;;;;;5074921;28;20043;-64
2022/11/19 12:03:53;;;;;;;8.38;5.18;;;;;;;;;;5074586;28;20044;-64
2022/11/19 12:06:21;;;;;;;7.07;5.30;;;;;;;;;;5074453;28;20300;-64
2022/11/19 12:08:57;;;;;;;7.15;5.15;;;;;;;;;;5087608;28;20036;-64
2022/11/19 12:11:54;;;;;;;8.25;5.93;;;;;;;;;;5095019;28;20123;-64
2022/11/19 12:14:35;;;;;;;7.00;5.07;;;;;;;;;;5095063;28;20096;-64
2022/11/19 12:17:20;;;;;;;7.18;5.00;;;;;;;;;;5094169;28;20050;-64
2022/11/19 12:19:58;;;;;;;8.68;4.68;;;;;;;;;;5094593;28;20093;-64
2022/11/19 12:22:30;;;;;;;7.32;5.45;;;;;;;;;;5094765;28;20043;-64
2022/11/19 12:25:15;;;;;;;7.20;5.18;;;;;;;;;;5094440;28;20123;-64
2022/11/19 12:27:49;;;;;;;5.78;4.50;;;;;;;;;;5093421;28;20074;-64
2022/11/19 12:30:23;;;;;;;6.45;4.97;;;;;;;;;;5094306;28;20461;-64
2022/11/19 12:33:07;;;;;;;7.20;4.72;;;;;;;;;;5094188;28;20089;-64
2022/11/19 12:35:42;;;;;;;6.38;4.63;;;;;;;;;;5094382;28;20039;-64
2022/11/19 12:38:21;;;;;;;6.60;4.75;;;;;;;;;;5093140;28;20044;-65
2022/11/19 12:40:53;;;;;;;6.50;5.03;;;;;;;;;;5074012;28;20040;-64
2022/11/19 12:43:28;;;;;;;7.07;4.95;;;;;;;;;;5074308;28;20059;-64
2022/11/19 12:45:54;;;;;;;8.18;5.32;;;;;;;;;;5073762;28;20051;-64
2022/11/19 12:48:36;;;;;;;5.95;4.68;;;;;;;;;;5073377;28;20044;-64
2022/11/19 12:51:05;;;;;;;6.82;5.13;;;;;;;;;;5074036;28;20040;-64
2022/11/19 12:53:31;;;;;;;7.05;5.32;;;;;;;;;;5073721;28;20098;-64
2022/11/19 12:56:03;;;;;;;7.43;4.97;;;;;;;;;;5073921;28;20041;-64
2022/11/19 12:58:39;;;;;;;9.35;5.10;;;;;;;;;;5073788;28;20032;-64
2022/11/19 13:01:14;;;;;;;8.43;5.20;;;;;;;;;;5073446;28;20037;-64
2022/11/19 13:03:49;;;;;;;7.05;5.18;;;;;;;;;;5073576;28;20128;-64
2022/11/19 13:06:28;;;;;;;6.28;5.03;;;;;;;;;;5073477;28;20044;-64
2022/11/19 13:09:15;;;;;;;7.72;5.55;;;;;;;;;;5087334;28;20047;-64
2022/11/19 13:11:43;;;;;;;7.93;4.70;;;;;;;;;;5092230;28;20093;-64
2022/11/19 13:14:23;;;;;;;6.78;4.85;;;;;;;;;;5093572;28;20040;-64
2022/11/19 13:16:49;;;;;;;6.78;4.85;;;;;;;;;;5093050;28;20044;-64
2022/11/19 13:19:24;;;;;;;7.63;5.03;;;;;;;;;;5093534;28;20040;-64
2022/11/19 13:21:55;;;;;;;7.80;5.95;;;;;;;;;;5093334;28;20098;-64
2022/11/19 13:24:29;;;;;;;8.10;6.05;;;;;;;;;;5093365;28;20494;-64
2022/11/19 13:26:57;;;;;;;5.65;4.03;;;;;;;;;;5093599;28;20044;-64
2022/11/19 13:29:41;;;;;;;7.68;4.90;;;;;;;;;;5093496;28;20044;-64
2022/11/19 13:32:13;;;;;;;5.43;4.60;;;;;;;;;;5093017;28;20032;-64
2022/11/19 13:34:46;;;;;;;6.53;4.32;;;;;;;;;;5093492;28;20391;-64
2022/11/19 13:37:17;;;;;;;4.85;4.00;;;;;;;;;;5093514;28;20619;-64
2022/11/19 13:39:46;;;;;;;6.75;4.80;;;;;;;;;;5078958;28;20502;-64
2022/11/19 13:44:58;;;;;;;8.20;5.53;;;;;;;;;;5072704;28;20037;-64
2022/11/19 13:47:33;;;;;;;7.10;5.18;;;;;;;;;;5072982;28;20044;-64
2022/11/19 13:50:02;;;;;;;7.55;4.60;;;;;;;;;;5072899;28;20047;-64
2022/11/19 13:52:27;;;;;;;5.90;4.50;;;;;;;;;;5071208;28;20043;-64
2022/11/19 13:54:54;;;;;;;6.18;4.28;;;;;;;;;;5072480;28;20370;-64
2022/11/19 13:57:32;;;;;;;8.93;4.00;;;;;;;;;;5072438;28;20134;-64
2022/11/19 14:00:00;;;;;;;5.57;4.05;;;;;;;;;;5071176;28;20041;-64
2022/11/19 14:02:44;;;;;;;6.30;4.60;;;;;;;;;;5072742;28;20046;-64
2022/11/19 14:05:30;;;;;;;6.78;4.18;;;;;;;;;;5072525;28;20040;-64
2022/11/19 14:07:56;;;;;;;4.65;3.97;;;;;;;;;;5078149;28;20039;-64
2022/11/19 14:10:42;;;;;;;6.82;4.43;;;;;;;;;;5092606;28;20044;-64
2022/11/19 14:13:08;;;;;;;5.50;4.30;;;;;;;;;;5091271;28;20054;-64
2022/11/19 14:27:26;;;;;;;5.97;4.40;;;;;;;;;;5092475;28;20044;-64
2022/11/19 14:29:56;;;;;;;6.03;4.32;;;;;;;;;;5091871;28;20051;-64
2022/11/19 14:32:30;;;;;;;6.18;3.78;;;;;;;;;;5092308;28;20036;-64
2022/11/19 14:35:03;;;;;;;8.77;4.68;;;;;;;;;;5092415;28;20040;-64
2022/11/19 14:37:32;;;;;;;5.78;4.03;;;;;;;;;;5091888;28;20051;-64
2022/11/19 14:40:00;;;;;;;7.40;4.55;;;;;;;;;;5076067;28;20044;-64
2022/11/19 14:42:26;;;;;;;6.38;3.97;;;;;;;;;;5072066;28;20039;-64
2022/11/19 14:45:04;;;;;;;6.03;4.43;;;;;;;;;;5071597;28;20052;-64
2022/11/19 14:47:40;;;;;;;6.15;4.30;;;;;;;;;;5071856;28;20058;-64
2022/11/19 14:50:07;;;;;;;7.03;4.53;;;;;;;;;;5071760;28;20463;-64
2022/11/19 14:52:35;;;;;;;8.25;5.03;;;;;;;;;;5071430;28;20101;-64
2022/11/19 14:55:04;;;;;;;7.65;4.97;;;;;;;;;;5071933;28;20047;-64
2022/11/19 14:57:40;;;;;;;6.18;4.68;;;;;;;;;;5071718;28;20079;-64
2022/11/19 15:00:24;;;;;;;9.23;4.45;;;;;;;;;;5070869;28;20083;-64
2022/11/19 15:02:52;;;;;;;7.03;4.53;;;;;;;;;;5070523;28;20044;-64
2022/11/19 15:05:19;;;;;;;6.47;4.13;;;;;;;;;;5071595;28;20039;-64
2022/11/19 15:07:45;;;;;;;6.72;4.53;;;;;;;;;;5075726;28;20052;-64
2022/11/19 15:10:31;;;;;;;4.90;3.78;;;;;;;;;;5091505;28;20039;-64
2022/11/19 15:13:17;;;;;;;7.15;4.47;;;;;;;;;;5091293;28;20485;-64
2022/11/19 15:15:44;;;;;;;6.53;4.50;;;;;;;;;;5090887;28;20472;-64
2022/11/19 15:18:28;;;;;;;6.28;4.38;;;;;;;;;;5091497;28;20048;-64
2022/11/19 15:20:54;;;;;;;6.97;4.00;;;;;;;;;;5090272;28;20036;-64
2022/11/19 15:23:32;;;;;;;6.15;4.95;;;;;;;;;;5091133;28;20051;-64
2022/11/19 15:26:01;;;;;;;6.65;4.53;;;;;;;;;;5091671;28;20054;-64
2022/11/19 15:28:59;;;;;;;6.45;4.40;;;;;;;;;;5091348;28;20090;-64
2022/11/19 15:31:35;;;;;;;6.97;4.53;;;;;;;;;;5089669;28;20051;-64
2022/11/19 15:34:12;;;;;;;7.60;4.72;;;;;;;;;;5091596;28;20040;-64